Portada
METAR-TAF:

METAR-TAF

Aeroports :

Phitsanulok, Tailàndia

latitud: 16-46-23N, longitud: 100-16-56E, altitud: 47 m

Observació

L'informe es va fer fa 1 hora i 2 minuts, a les 04:00 UTC
Vent 5 kt del Sud-Est
Temperatura 31°C
Humitat 43%
Pressió 1015 hPa
Visibilitat 10 km o més
Escasses núvols a una alçada de 3500 ft

METAR: VTPP 210400Z 14005KT 9999 FEW035 31/17 Q1015 NOSIG

Hora: 12:02 (05:02 UTC)

Pronòstic

L'informe es va fer fa 6 hores i 2 minuts, a les 23:00 UTC
Pronòstic vàlid del 21 a les 00 UTC al 21 a les 24 UTC
Vent 5 kt del Est/Nord-Est
Visibilitat: 4000 m
Escasses núvols a una alçada de 2500 ft
boirina
Evolucionant progressivament
l' 21 a les 01 UTC al 21 a les 03 UTC
Visibilitat 10 km o més

TAF: VTPP 202300Z 2100/2124 06005KT 4000 BR FEW025 BECMG 2101/2103 9999 NSW

Observacions i pronòstics meteorològics de més de 4000 aeroports (METAR i TAF).

Les estacions disponibles són els punts grocs i vermells al mapa.

Posi el ratolí al punt desitjat per veure el nom de l'estació.

Feu clic per veure les observacions i els pronòstics meteorològics.

Per canviar el mapa: feu clic els botons verds amb una creu de color negre per apropar; al botó verd amb un guió per allunyar la imatge; o en les fletxes verdes per a mapes adjacents.


METAR-TAF: